sensor_id;sensor_type;location;lat;lon;timestamp;temperature;humidity
46043;DHT22;32533;-33.854;18.542;2022-07-15T00:00:37;15.80;90.20
46043;DHT22;32533;-33.854;18.542;2022-07-15T00:03:03;15.80;90.20
46043;DHT22;32533;-33.854;18.542;2022-07-15T00:05:30;15.80;90.20
46043;DHT22;32533;-33.854;18.542;2022-07-15T00:07:57;15.80;90.20
46043;DHT22;32533;-33.854;18.542;2022-07-15T00:10:27;15.80;90.20
46043;DHT22;32533;-33.854;18.542;2022-07-15T00:12:57;15.80;90.20
46043;DHT22;32533;-33.854;18.542;2022-07-15T00:15:25;15.70;90.10
46043;DHT22;32533;-33.854;18.542;2022-07-15T00:17:53;15.70;90.10
46043;DHT22;32533;-33.854;18.542;2022-07-15T00:20:20;15.70;90.20
46043;DHT22;32533;-33.854;18.542;2022-07-15T00:22:47;15.70;90.30
46043;DHT22;32533;-33.854;18.542;2022-07-15T00:25:14;15.70;90.50
46043;DHT22;32533;-33.854;18.542;2022-07-15T00:30:18;15.70;90.30
46043;DHT22;32533;-33.854;18.542;2022-07-15T00:32:45;15.70;90.20
46043;DHT22;32533;-33.854;18.542;2022-07-15T00:35:12;15.70;90.20
46043;DHT22;32533;-33.854;18.542;2022-07-15T00:37:39;15.70;90.20
46043;DHT22;32533;-33.854;18.542;2022-07-15T00:40:06;15.70;90.20
46043;DHT22;32533;-33.854;18.542;2022-07-15T00:42:32;15.60;90.20
46043;DHT22;32533;-33.854;18.542;2022-07-15T00:45:22;15.70;90.20
46043;DHT22;32533;-33.854;18.542;2022-07-15T00:47:52;15.60;90.30
46043;DHT22;32533;-33.854;18.542;2022-07-15T00:50:20;15.60;90.30
46043;DHT22;32533;-33.854;18.542;2022-07-15T00:53:02;15.60;90.30
46043;DHT22;32533;-33.854;18.542;2022-07-15T00:55:37;15.60;90.30
46043;DHT22;32533;-33.854;18.542;2022-07-15T00:58:05;15.60;90.30
46043;DHT22;32533;-33.854;18.542;2022-07-15T01:00:33;15.60;90.30
46043;DHT22;32533;-33.854;18.542;2022-07-15T01:03:00;15.60;90.30
46043;DHT22;32533;-33.854;18.542;2022-07-15T01:05:27;15.60;90.30
46043;DHT22;32533;-33.854;18.542;2022-07-15T01:07:54;15.60;90.40
46043;DHT22;32533;-33.854;18.542;2022-07-15T01:10:22;15.60;90.40
46043;DHT22;32533;-33.854;18.542;2022-07-15T01:12:50;15.60;90.40
46043;DHT22;32533;-33.854;18.542;2022-07-15T01:15:17;15.60;90.40
46043;DHT22;32533;-33.854;18.542;2022-07-15T01:17:45;15.60;90.40
46043;DHT22;32533;-33.854;18.542;2022-07-15T01:20:13;15.60;90.40
46043;DHT22;32533;-33.854;18.542;2022-07-15T01:22:40;15.60;90.50
46043;DHT22;32533;-33.854;18.542;2022-07-15T01:25:07;15.50;90.50
46043;DHT22;32533;-33.854;18.542;2022-07-15T01:27:34;15.50;90.50
46043;DHT22;32533;-33.854;18.542;2022-07-15T01:30:00;15.50;90.80
46043;DHT22;32533;-33.854;18.542;2022-07-15T01:32:27;15.50;90.50
46043;DHT22;32533;-33.854;18.542;2022-07-15T01:34:54;15.50;90.60
46043;DHT22;32533;-33.854;18.542;2022-07-15T01:37:20;15.50;90.60
46043;DHT22;32533;-33.854;18.542;2022-07-15T01:39:47;15.50;90.70
46043;DHT22;32533;-33.854;18.542;2022-07-15T01:42:14;15.50;90.70
46043;DHT22;32533;-33.854;18.542;2022-07-15T01:44:40;15.50;90.80
46043;DHT22;32533;-33.854;18.542;2022-07-15T01:47:07;15.50;90.80
46043;DHT22;32533;-33.854;18.542;2022-07-15T01:49:33;15.50;90.80
46043;DHT22;32533;-33.854;18.542;2022-07-15T01:52:01;15.50;90.80
46043;DHT22;32533;-33.854;18.542;2022-07-15T01:54:30;15.50;90.80
46043;DHT22;32533;-33.854;18.542;2022-07-15T01:56:57;15.50;90.80
46043;DHT22;32533;-33.854;18.542;2022-07-15T01:59:24;15.40;90.80
46043;DHT22;32533;-33.854;18.542;2022-07-15T02:01:56;15.40;90.80
46043;DHT22;32533;-33.854;18.542;2022-07-15T02:04:23;15.50;90.80
46043;DHT22;32533;-33.854;18.542;2022-07-15T02:06:51;15.40;90.80
46043;DHT22;32533;-33.854;18.542;2022-07-15T02:09:17;15.40;90.80
46043;DHT22;32533;-33.854;18.542;2022-07-15T02:11:44;15.40;90.80
46043;DHT22;32533;-33.854;18.542;2022-07-15T02:14:11;15.40;90.80
46043;DHT22;32533;-33.854;18.542;2022-07-15T02:16:38;15.40;90.80
46043;DHT22;32533;-33.854;18.542;2022-07-15T02:19:04;15.40;90.80
46043;DHT22;32533;-33.854;18.542;2022-07-15T02:21:31;15.40;90.90
46043;DHT22;32533;-33.854;18.542;2022-07-15T02:23:57;15.40;91.00
46043;DHT22;32533;-33.854;18.542;2022-07-15T02:26:24;15.40;91.00
46043;DHT22;32533;-33.854;18.542;2022-07-15T02:28:51;15.40;91.00
46043;DHT22;32533;-33.854;18.542;2022-07-15T02:31:18;15.40;91.00
46043;DHT22;32533;-33.854;18.542;2022-07-15T02:33:44;15.40;91.00
46043;DHT22;32533;-33.854;18.542;2022-07-15T02:36:11;15.40;91.00
46043;DHT22;32533;-33.854;18.542;2022-07-15T02:38:38;15.40;91.00
46043;DHT22;32533;-33.854;18.542;2022-07-15T02:41:06;15.40;91.20
46043;DHT22;32533;-33.854;18.542;2022-07-15T02:43:33;15.40;91.40
46043;DHT22;32533;-33.854;18.542;2022-07-15T02:46:00;15.40;91.60
46043;DHT22;32533;-33.854;18.542;2022-07-15T02:48:27;15.40;91.50
46043;DHT22;32533;-33.854;18.542;2022-07-15T02:50:53;15.40;91.40
46043;DHT22;32533;-33.854;18.542;2022-07-15T02:53:20;15.40;91.50
46043;DHT22;32533;-33.854;18.542;2022-07-15T02:55:50;15.40;91.50
46043;DHT22;32533;-33.854;18.542;2022-07-15T02:58:16;15.40;91.50
46043;DHT22;32533;-33.854;18.542;2022-07-15T03:00:42;15.40;91.40
46043;DHT22;32533;-33.854;18.542;2022-07-15T03:03:09;15.40;91.40
46043;DHT22;32533;-33.854;18.542;2022-07-15T03:05:35;15.40;91.30
46043;DHT22;32533;-33.854;18.542;2022-07-15T04:16:31;14.70;92.20
46043;DHT22;32533;-33.854;18.542;2022-07-15T04:18:58;14.90;92.70
46043;DHT22;32533;-33.854;18.542;2022-07-15T04:21:25;14.90;92.50
46043;DHT22;32533;-33.854;18.542;2022-07-15T04:23:51;14.90;92.40
46043;DHT22;32533;-33.854;18.542;2022-07-15T04:26:18;15.00;92.20
46043;DHT22;32533;-33.854;18.542;2022-07-15T04:28:44;15.00;92.20
46043;DHT22;32533;-33.854;18.542;2022-07-15T04:31:11;15.00;92.10
46043;DHT22;32533;-33.854;18.542;2022-07-15T04:33:37;15.00;92.00
46043;DHT22;32533;-33.854;18.542;2022-07-15T04:36:04;15.00;91.90
46043;DHT22;32533;-33.854;18.542;2022-07-15T04:38:30;15.00;91.90
46043;DHT22;32533;-33.854;18.542;2022-07-15T04:40:57;15.00;92.00
46043;DHT22;32533;-33.854;18.542;2022-07-15T04:43:23;15.00;92.00
46043;DHT22;32533;-33.854;18.542;2022-07-15T04:45:50;15.00;92.10
46043;DHT22;32533;-33.854;18.542;2022-07-15T04:48:16;15.10;92.10
46043;DHT22;32533;-33.854;18.542;2022-07-15T04:51:01;15.10;92.10
46043;DHT22;32533;-33.854;18.542;2022-07-15T04:53:28;15.10;92.10
46043;DHT22;32533;-33.854;18.542;2022-07-15T04:55:54;15.10;92.00
46043;DHT22;32533;-33.854;18.542;2022-07-15T04:58:21;15.10;92.00
46043;DHT22;32533;-33.854;18.542;2022-07-15T05:00:47;15.10;92.00
46043;DHT22;32533;-33.854;18.542;2022-07-15T05:03:14;15.10;92.00
46043;DHT22;32533;-33.854;18.542;2022-07-15T05:05:41;15.10;92.00
46043;DHT22;32533;-33.854;18.542;2022-07-15T05:08:10;15.00;92.00
46043;DHT22;32533;-33.854;18.542;2022-07-15T05:10:36;15.10;92.00
46043;DHT22;32533;-33.854;18.542;2022-07-15T05:13:03;15.10;92.00
46043;DHT22;32533;-33.854;18.542;2022-07-15T05:15:30;15.00;92.00
46043;DHT22;32533;-33.854;18.542;2022-07-15T05:17:57;15.00;92.00
46043;DHT22;32533;-33.854;18.542;2022-07-15T05:20:23;15.00;91.90
46043;DHT22;32533;-33.854;18.542;2022-07-15T05:22:50;15.00;92.20
46043;DHT22;32533;-33.854;18.542;2022-07-15T05:25:16;15.00;91.90
46043;DHT22;32533;-33.854;18.542;2022-07-15T05:27:43;15.00;91.90
46043;DHT22;32533;-33.854;18.542;2022-07-15T05:30:10;15.00;91.90
46043;DHT22;32533;-33.854;18.542;2022-07-15T05:32:40;15.00;92.00
46043;DHT22;32533;-33.854;18.542;2022-07-15T05:35:06;15.00;91.90
46043;DHT22;32533;-33.854;18.542;2022-07-15T05:37:36;15.00;92.00
46043;DHT22;32533;-33.854;18.542;2022-07-15T05:40:02;15.00;92.00
46043;DHT22;32533;-33.854;18.542;2022-07-15T05:42:29;15.00;92.10
46043;DHT22;32533;-33.854;18.542;2022-07-15T05:44:55;15.00;92.00
46043;DHT22;32533;-33.854;18.542;2022-07-15T05:47:23;15.00;92.10
46043;DHT22;32533;-33.854;18.542;2022-07-15T05:49:50;15.00;92.10
46043;DHT22;32533;-33.854;18.542;2022-07-15T05:52:16;15.00;92.10
46043;DHT22;32533;-33.854;18.542;2022-07-15T05:54:43;15.00;92.10
46043;DHT22;32533;-33.854;18.542;2022-07-15T05:57:09;15.00;92.10
46043;DHT22;32533;-33.854;18.542;2022-07-15T05:59:36;15.00;92.20
46043;DHT22;32533;-33.854;18.542;2022-07-15T06:02:02;15.00;92.20
46043;DHT22;32533;-33.854;18.542;2022-07-15T06:04:49;15.00;92.20
46043;DHT22;32533;-33.854;18.542;2022-07-15T06:07:24;15.00;92.20
46043;DHT22;32533;-33.854;18.542;2022-07-15T06:09:50;15.00;92.20
46043;DHT22;32533;-33.854;18.542;2022-07-15T06:12:17;15.00;92.20
46043;DHT22;32533;-33.854;18.542;2022-07-15T06:14:44;15.00;92.20
46043;DHT22;32533;-33.854;18.542;2022-07-15T06:17:10;15.00;92.20
46043;DHT22;32533;-33.854;18.542;2022-07-15T06:19:37;15.10;92.30
46043;DHT22;32533;-33.854;18.542;2022-07-15T06:22:03;15.10;92.30
46043;DHT22;32533;-33.854;18.542;2022-07-15T06:24:30;15.10;92.30
46043;DHT22;32533;-33.854;18.542;2022-07-15T06:26:56;15.10;92.30
46043;DHT22;32533;-33.854;18.542;2022-07-15T06:29:23;15.10;92.30
46043;DHT22;32533;-33.854;18.542;2022-07-15T06:31:50;15.00;92.40
46043;DHT22;32533;-33.854;18.542;2022-07-15T06:34:17;15.10;92.40
46043;DHT22;32533;-33.854;18.542;2022-07-15T06:36:44;15.10;92.50
46043;DHT22;32533;-33.854;18.542;2022-07-15T06:39:10;15.10;92.50
46043;DHT22;32533;-33.854;18.542;2022-07-15T06:41:37;15.10;92.60
46043;DHT22;32533;-33.854;18.542;2022-07-15T06:44:03;15.10;92.60
46043;DHT22;32533;-33.854;18.542;2022-07-15T06:46:31;15.10;92.70
46043;DHT22;32533;-33.854;18.542;2022-07-15T06:48:57;15.10;92.70
46043;DHT22;32533;-33.854;18.542;2022-07-15T06:51:24;15.10;92.80
46043;DHT22;32533;-33.854;18.542;2022-07-15T06:53:50;15.10;92.80
46043;DHT22;32533;-33.854;18.542;2022-07-15T06:56:17;15.10;92.80
46043;DHT22;32533;-33.854;18.542;2022-07-15T06:58:43;15.20;92.90
46043;DHT22;32533;-33.854;18.542;2022-07-15T07:01:10;15.20;93.00
46043;DHT22;32533;-33.854;18.542;2022-07-15T07:03:37;15.20;93.10
46043;DHT22;32533;-33.854;18.542;2022-07-15T07:06:04;15.20;93.30
46043;DHT22;32533;-33.854;18.542;2022-07-15T07:08:32;15.20;93.40
46043;DHT22;32533;-33.854;18.542;2022-07-15T07:10:58;15.20;93.60
46043;DHT22;32533;-33.854;18.542;2022-07-15T07:13:25;15.20;93.60
46043;DHT22;32533;-33.854;18.542;2022-07-15T07:15:51;15.20;93.60
46043;DHT22;32533;-33.854;18.542;2022-07-15T07:18:18;15.20;93.50
46043;DHT22;32533;-33.854;18.542;2022-07-15T07:20:44;15.20;93.50
46043;DHT22;32533;-33.854;18.542;2022-07-15T07:23:11;15.20;93.50
46043;DHT22;32533;-33.854;18.542;2022-07-15T07:25:37;15.20;93.50
46043;DHT22;32533;-33.854;18.542;2022-07-15T07:28:04;15.20;93.50
46043;DHT22;32533;-33.854;18.542;2022-07-15T07:30:32;15.20;93.60
46043;DHT22;32533;-33.854;18.542;2022-07-15T07:32:59;15.20;93.60
46043;DHT22;32533;-33.854;18.542;2022-07-15T07:35:26;15.20;93.60
46043;DHT22;32533;-33.854;18.542;2022-07-15T07:37:52;15.30;93.60
46043;DHT22;32533;-33.854;18.542;2022-07-15T07:40:19;15.30;93.70
46043;DHT22;32533;-33.854;18.542;2022-07-15T07:42:45;15.30;93.70
46043;DHT22;32533;-33.854;18.542;2022-07-15T07:45:12;15.30;93.70
46043;DHT22;32533;-33.854;18.542;2022-07-15T07:47:38;15.30;93.80
46043;DHT22;32533;-33.854;18.542;2022-07-15T07:50:10;15.30;93.80
46043;DHT22;32533;-33.854;18.542;2022-07-15T07:52:36;15.30;93.90
46043;DHT22;32533;-33.854;18.542;2022-07-15T07:55:03;15.30;93.90
46043;DHT22;32533;-33.854;18.542;2022-07-15T07:57:30;15.40;93.90
46043;DHT22;32533;-33.854;18.542;2022-07-15T07:59:56;15.40;94.00
46043;DHT22;32533;-33.854;18.542;2022-07-15T08:02:23;15.40;94.00
46043;DHT22;32533;-33.854;18.542;2022-07-15T08:04:50;15.40;94.00
46043;DHT22;32533;-33.854;18.542;2022-07-15T08:07:17;15.40;94.10
46043;DHT22;32533;-33.854;18.542;2022-07-15T08:09:44;15.40;94.10
46043;DHT22;32533;-33.854;18.542;2022-07-15T08:12:11;15.50;94.10
46043;DHT22;32533;-33.854;18.542;2022-07-15T08:14:37;15.50;94.10
46043;DHT22;32533;-33.854;18.542;2022-07-15T08:17:04;15.50;94.10
46043;DHT22;32533;-33.854;18.542;2022-07-15T08:19:30;15.50;94.10
46043;DHT22;32533;-33.854;18.542;2022-07-15T08:21:57;15.60;94.10
46043;DHT22;32533;-33.854;18.542;2022-07-15T08:24:23;15.60;94.10
46043;DHT22;32533;-33.854;18.542;2022-07-15T08:26:50;15.60;94.10
46043;DHT22;32533;-33.854;18.542;2022-07-15T08:29:16;15.60;94.10
46043;DHT22;32533;-33.854;18.542;2022-07-15T08:31:43;15.70;94.10
46043;DHT22;32533;-33.854;18.542;2022-07-15T08:34:09;15.70;94.00
46043;DHT22;32533;-33.854;18.542;2022-07-15T08:36:35;15.70;94.00
46043;DHT22;32533;-33.854;18.542;2022-07-15T08:39:02;15.70;94.00
46043;DHT22;32533;-33.854;18.542;2022-07-15T08:41:29;15.70;93.90
46043;DHT22;32533;-33.854;18.542;2022-07-15T08:43:59;15.80;93.90
46043;DHT22;32533;-33.854;18.542;2022-07-15T08:46:26;15.80;93.80
46043;DHT22;32533;-33.854;18.542;2022-07-15T08:48:54;15.80;93.70
46043;DHT22;32533;-33.854;18.542;2022-07-15T08:51:24;15.90;93.70
46043;DHT22;32533;-33.854;18.542;2022-07-15T08:53:51;15.90;93.60
46043;DHT22;32533;-33.854;18.542;2022-07-15T08:56:19;15.90;93.50
46043;DHT22;32533;-33.854;18.542;2022-07-15T08:58:46;15.90;93.50
46043;DHT22;32533;-33.854;18.542;2022-07-15T09:01:13;15.90;93.60
46043;DHT22;32533;-33.854;18.542;2022-07-15T09:03:39;16.00;93.70
46043;DHT22;32533;-33.854;18.542;2022-07-15T09:06:06;16.00;93.60
46043;DHT22;32533;-33.854;18.542;2022-07-15T09:08:32;16.00;93.50
46043;DHT22;32533;-33.854;18.542;2022-07-15T09:11:00;16.10;93.50
46043;DHT22;32533;-33.854;18.542;2022-07-15T09:15:59;16.10;93.30
46043;DHT22;32533;-33.854;18.542;2022-07-15T09:18:29;16.20;93.30
46043;DHT22;32533;-33.854;18.542;2022-07-15T09:20:56;16.20;93.30
46043;DHT22;32533;-33.854;18.542;2022-07-15T09:23:26;16.20;93.10
46043;DHT22;32533;-33.854;18.542;2022-07-15T09:26:00;16.30;93.00
46043;DHT22;32533;-33.854;18.542;2022-07-15T09:28:42;16.30;92.90
46043;DHT22;32533;-33.854;18.542;2022-07-15T09:31:10;16.40;92.80
46043;DHT22;32533;-33.854;18.542;2022-07-15T09:34:01;16.40;92.70
46043;DHT22;32533;-33.854;18.542;2022-07-15T09:36:30;16.50;92.50
46043;DHT22;32533;-33.854;18.542;2022-07-15T09:39:01;16.50;92.40
46043;DHT22;32533;-33.854;18.542;2022-07-15T09:41:32;16.60;92.30
46043;DHT22;32533;-33.854;18.542;2022-07-15T09:44:03;16.60;92.20
46043;DHT22;32533;-33.854;18.542;2022-07-15T09:46:58;16.70;92.20
46043;DHT22;32533;-33.854;18.542;2022-07-15T09:51:58;16.80;91.90
46043;DHT22;32533;-33.854;18.542;2022-07-15T09:54:31;16.90;91.80
46043;DHT22;32533;-33.854;18.542;2022-07-15T09:57:01;16.90;91.70
46043;DHT22;32533;-33.854;18.542;2022-07-15T09:59:28;17.00;91.60
46043;DHT22;32533;-33.854;18.542;2022-07-15T10:01:56;17.00;91.50
46043;DHT22;32533;-33.854;18.542;2022-07-15T10:04:25;17.00;91.40
46043;DHT22;32533;-33.854;18.542;2022-07-15T10:06:56;17.10;91.40
46043;DHT22;32533;-33.854;18.542;2022-07-15T10:09:27;17.20;91.20
46043;DHT22;32533;-33.854;18.542;2022-07-15T10:11:56;17.20;91.10
46043;DHT22;32533;-33.854;18.542;2022-07-15T10:22:27;17.40;90.60
46043;DHT22;32533;-33.854;18.542;2022-07-15T10:25:55;17.40;90.30
46043;DHT22;32533;-33.854;18.542;2022-07-15T10:28:17;17.50;90.30
46043;DHT22;32533;-33.854;18.542;2022-07-15T10:30:46;17.50;90.20
46043;DHT22;32533;-33.854;18.542;2022-07-15T10:33:29;17.60;90.20
46043;DHT22;32533;-33.854;18.542;2022-07-15T10:36:04;17.60;89.90
46043;DHT22;32533;-33.854;18.542;2022-07-15T10:38:38;17.70;89.40
46043;DHT22;32533;-33.854;18.542;2022-07-15T10:41:15;17.70;88.70
46043;DHT22;32533;-33.854;18.542;2022-07-15T10:43:54;17.80;88.10
46043;DHT22;32533;-33.854;18.542;2022-07-15T10:54:10;18.00;86.00
46043;DHT22;32533;-33.854;18.542;2022-07-15T10:56:42;18.00;85.30
46043;DHT22;32533;-33.854;18.542;2022-07-15T10:59:13;18.00;85.80
46043;DHT22;32533;-33.854;18.542;2022-07-15T11:01:50;18.10;84.90
46043;DHT22;32533;-33.854;18.542;2022-07-15T11:04:36;18.10;84.50
46043;DHT22;32533;-33.854;18.542;2022-07-15T11:09:49;18.20;83.90
46043;DHT22;32533;-33.854;18.542;2022-07-15T11:14:58;18.30;83.40
46043;DHT22;32533;-33.854;18.542;2022-07-15T11:17:41;18.40;83.10
46043;DHT22;32533;-33.854;18.542;2022-07-15T11:20:13;18.40;82.50
46043;DHT22;32533;-33.854;18.542;2022-07-15T11:22:45;18.50;81.80
46043;DHT22;32533;-33.854;18.542;2022-07-15T11:25:30;18.50;81.00
46043;DHT22;32533;-33.854;18.542;2022-07-15T11:30:46;18.60;79.80
46043;DHT22;32533;-33.854;18.542;2022-07-15T11:33:16;18.60;79.40
46043;DHT22;32533;-33.854;18.542;2022-07-15T11:38:13;18.80;78.00
46043;DHT22;32533;-33.854;18.542;2022-07-15T11:40:48;18.80;77.90
46043;DHT22;32533;-33.854;18.542;2022-07-15T11:43:34;18.80;77.70
46043;DHT22;32533;-33.854;18.542;2022-07-15T11:46:19;18.90;78.20
46043;DHT22;32533;-33.854;18.542;2022-07-15T11:48:47;19.00;78.20
46043;DHT22;32533;-33.854;18.542;2022-07-15T11:51:14;19.10;78.10
46043;DHT22;32533;-33.854;18.542;2022-07-15T11:53:45;19.10;78.00
46043;DHT22;32533;-33.854;18.542;2022-07-15T11:56:14;19.20;77.70
46043;DHT22;32533;-33.854;18.542;2022-07-15T11:58:49;19.30;77.40
46043;DHT22;32533;-33.854;18.542;2022-07-15T12:01:20;19.30;76.90
46043;DHT22;32533;-33.854;18.542;2022-07-15T12:03:51;19.40;77.70
46043;DHT22;32533;-33.854;18.542;2022-07-15T12:06:26;19.40;79.00
46043;DHT22;32533;-33.854;18.542;2022-07-15T12:08:56;19.40;79.00
46043;DHT22;32533;-33.854;18.542;2022-07-15T12:11:26;19.50;79.50
46043;DHT22;32533;-33.854;18.542;2022-07-15T12:13:56;19.50;79.50
46043;DHT22;32533;-33.854;18.542;2022-07-15T12:16:29;19.60;79.80
46043;DHT22;32533;-33.854;18.542;2022-07-15T12:18:58;19.60;79.90
46043;DHT22;32533;-33.854;18.542;2022-07-15T12:21:26;19.50;79.90
46043;DHT22;32533;-33.854;18.542;2022-07-15T12:24:07;19.60;79.40
46043;DHT22;32533;-33.854;18.542;2022-07-15T12:26:57;19.60;79.30
46043;DHT22;32533;-33.854;18.542;2022-07-15T12:29:30;19.60;79.40
46043;DHT22;32533;-33.854;18.542;2022-07-15T12:32:05;19.60;79.50
46043;DHT22;32533;-33.854;18.542;2022-07-15T12:37:19;19.70;79.50
46043;DHT22;32533;-33.854;18.542;2022-07-15T12:40:06;19.70;79.20
46043;DHT22;32533;-33.854;18.542;2022-07-15T12:42:43;19.70;79.00
46043;DHT22;32533;-33.854;18.542;2022-07-15T12:45:11;19.70;78.70
46043;DHT22;32533;-33.854;18.542;2022-07-15T12:48:11;19.70;78.50
46043;DHT22;32533;-33.854;18.542;2022-07-15T12:53:16;19.70;77.80
46043;DHT22;32533;-33.854;18.542;2022-07-15T12:55:48;19.70;77.70
46043;DHT22;32533;-33.854;18.542;2022-07-15T12:58:17;19.80;77.70
46043;DHT22;32533;-33.854;18.542;2022-07-15T13:00:45;19.80;77.40
46043;DHT22;32533;-33.854;18.542;2022-07-15T13:03:22;19.80;77.30
46043;DHT22;32533;-33.854;18.542;2022-07-15T13:05:51;19.80;77.20
46043;DHT22;32533;-33.854;18.542;2022-07-15T13:08:20;19.80;77.00
46043;DHT22;32533;-33.854;18.542;2022-07-15T13:10:48;19.90;77.10
46043;DHT22;32533;-33.854;18.542;2022-07-15T13:13:18;19.90;77.00
46043;DHT22;32533;-33.854;18.542;2022-07-15T13:15:46;19.90;77.30
46043;DHT22;32533;-33.854;18.542;2022-07-15T13:18:14;19.90;76.60
46043;DHT22;32533;-33.854;18.542;2022-07-15T13:20:42;19.90;76.70
46043;DHT22;32533;-33.854;18.542;2022-07-15T13:23:08;19.90;76.50
46043;DHT22;32533;-33.854;18.542;2022-07-15T13:25:36;19.90;76.50
46043;DHT22;32533;-33.854;18.542;2022-07-15T13:28:04;19.90;76.40
46043;DHT22;32533;-33.854;18.542;2022-07-15T13:30:31;19.90;76.50
46043;DHT22;32533;-33.854;18.542;2022-07-15T13:32:58;19.80;76.40
46043;DHT22;32533;-33.854;18.542;2022-07-15T13:35:25;19.80;76.50
46043;DHT22;32533;-33.854;18.542;2022-07-15T13:37:52;19.90;76.70
46043;DHT22;32533;-33.854;18.542;2022-07-15T13:40:18;19.90;76.70
46043;DHT22;32533;-33.854;18.542;2022-07-15T13:42:46;19.90;76.70
46043;DHT22;32533;-33.854;18.542;2022-07-15T13:45:13;19.90;76.60
46043;DHT22;32533;-33.854;18.542;2022-07-15T13:47:40;19.90;76.30
46043;DHT22;32533;-33.854;18.542;2022-07-15T13:50:08;19.90;76.20
46043;DHT22;32533;-33.854;18.542;2022-07-15T13:52:54;19.80;76.10
46043;DHT22;32533;-33.854;18.542;2022-07-15T13:55:22;19.80;76.30
46043;DHT22;32533;-33.854;18.542;2022-07-15T13:57:48;19.80;76.40
46043;DHT22;32533;-33.854;18.542;2022-07-15T14:00:17;19.70;76.40
46043;DHT22;32533;-33.854;18.542;2022-07-15T14:02:45;19.70;76.60
46043;DHT22;32533;-33.854;18.542;2022-07-15T14:05:12;19.70;76.80
46043;DHT22;32533;-33.854;18.542;2022-07-15T14:07:43;19.70;76.90
46043;DHT22;32533;-33.854;18.542;2022-07-15T14:10:10;19.60;77.10
46043;DHT22;32533;-33.854;18.542;2022-07-15T14:12:36;19.60;77.40
46043;DHT22;32533;-33.854;18.542;2022-07-15T14:15:04;19.60;78.00
46043;DHT22;32533;-33.854;18.542;2022-07-15T14:17:30;19.60;78.70
46043;DHT22;32533;-33.854;18.542;2022-07-15T14:19:57;19.60;78.80
46043;DHT22;32533;-33.854;18.542;2022-07-15T14:22:24;19.60;79.00
46043;DHT22;32533;-33.854;18.542;2022-07-15T14:24:55;19.60;79.30
46043;DHT22;32533;-33.854;18.542;2022-07-15T14:27:22;19.60;79.50
46043;DHT22;32533;-33.854;18.542;2022-07-15T14:29:48;19.60;79.50
46043;DHT22;32533;-33.854;18.542;2022-07-15T14:32:15;19.60;79.80
46043;DHT22;32533;-33.854;18.542;2022-07-15T14:34:41;19.60;80.20
46043;DHT22;32533;-33.854;18.542;2022-07-15T14:37:08;19.60;80.60
46043;DHT22;32533;-33.854;18.542;2022-07-15T14:39:34;19.60;80.90
46043;DHT22;32533;-33.854;18.542;2022-07-15T14:42:01;19.60;80.90
46043;DHT22;32533;-33.854;18.542;2022-07-15T14:44:27;19.60;81.00
46043;DHT22;32533;-33.854;18.542;2022-07-15T14:46:54;19.50;81.30
46043;DHT22;32533;-33.854;18.542;2022-07-15T14:49:20;19.50;81.80
46043;DHT22;32533;-33.854;18.542;2022-07-15T14:51:47;19.50;82.20
46043;DHT22;32533;-33.854;18.542;2022-07-15T14:54:13;19.40;82.50
46043;DHT22;32533;-33.854;18.542;2022-07-15T14:56:40;19.40;82.60
46043;DHT22;32533;-33.854;18.542;2022-07-15T14:59:07;19.40;82.60
46043;DHT22;32533;-33.854;18.542;2022-07-15T15:01:33;19.40;82.60
46043;DHT22;32533;-33.854;18.542;2022-07-15T15:04:00;19.40;82.50
46043;DHT22;32533;-33.854;18.542;2022-07-15T15:06:26;19.40;82.20
46043;DHT22;32533;-33.854;18.542;2022-07-15T15:08:53;19.30;82.10
46043;DHT22;32533;-33.854;18.542;2022-07-15T15:11:19;19.30;82.10
46043;DHT22;32533;-33.854;18.542;2022-07-15T15:13:46;19.30;82.30
46043;DHT22;32533;-33.854;18.542;2022-07-15T15:16:13;19.20;82.50
46043;DHT22;32533;-33.854;18.542;2022-07-15T15:18:39;19.20;82.70
46043;DHT22;32533;-33.854;18.542;2022-07-15T15:21:06;19.20;82.80
46043;DHT22;32533;-33.854;18.542;2022-07-15T15:23:33;19.10;83.00
46043;DHT22;32533;-33.854;18.542;2022-07-15T15:25:59;19.10;83.30
46043;DHT22;32533;-33.854;18.542;2022-07-15T15:28:44;19.10;83.40
46043;DHT22;32533;-33.854;18.542;2022-07-15T15:31:10;19.10;83.20
46043;DHT22;32533;-33.854;18.542;2022-07-15T15:33:37;19.00;83.00
46043;DHT22;32533;-33.854;18.542;2022-07-15T15:36:03;18.90;83.00
46043;DHT22;32533;-33.854;18.542;2022-07-15T15:38:30;18.90;83.10
46043;DHT22;32533;-33.854;18.542;2022-07-15T15:40:56;18.90;83.10
46043;DHT22;32533;-33.854;18.542;2022-07-15T15:43:23;18.80;83.10
46043;DHT22;32533;-33.854;18.542;2022-07-15T15:45:50;18.80;83.10
46043;DHT22;32533;-33.854;18.542;2022-07-15T15:48:17;18.80;83.20
46043;DHT22;32533;-33.854;18.542;2022-07-15T15:50:43;18.80;83.30
46043;DHT22;32533;-33.854;18.542;2022-07-15T15:53:09;18.80;83.40
46043;DHT22;32533;-33.854;18.542;2022-07-15T15:55:36;18.70;83.30
46043;DHT22;32533;-33.854;18.542;2022-07-15T15:58:03;18.70;83.30
46043;DHT22;32533;-33.854;18.542;2022-07-15T16:00:29;18.70;83.30
46043;DHT22;32533;-33.854;18.542;2022-07-15T16:02:56;18.60;83.40
46043;DHT22;32533;-33.854;18.542;2022-07-15T16:05:23;18.60;83.60
46043;DHT22;32533;-33.854;18.542;2022-07-15T16:07:49;18.50;83.80
46043;DHT22;32533;-33.854;18.542;2022-07-15T16:10:16;18.50;84.20
46043;DHT22;32533;-33.854;18.542;2022-07-15T16:12:42;18.50;84.40
46043;DHT22;32533;-33.854;18.542;2022-07-15T16:15:09;18.40;84.40
46043;DHT22;32533;-33.854;18.542;2022-07-15T16:17:37;18.40;84.50
46043;DHT22;32533;-33.854;18.542;2022-07-15T16:20:05;18.40;84.60
46043;DHT22;32533;-33.854;18.542;2022-07-15T16:22:32;18.40;84.70
46043;DHT22;32533;-33.854;18.542;2022-07-15T16:25:21;18.30;84.80
46043;DHT22;32533;-33.854;18.542;2022-07-15T16:27:48;18.30;85.00
46043;DHT22;32533;-33.854;18.542;2022-07-15T16:30:15;18.30;85.20
46043;DHT22;32533;-33.854;18.542;2022-07-15T16:32:42;18.30;85.40
46043;DHT22;32533;-33.854;18.542;2022-07-15T16:35:08;18.20;85.70
46043;DHT22;32533;-33.854;18.542;2022-07-15T16:37:35;18.20;86.00
46043;DHT22;32533;-33.854;18.542;2022-07-15T16:40:02;18.20;86.40
46043;DHT22;32533;-33.854;18.542;2022-07-15T16:42:28;18.10;86.50
46043;DHT22;32533;-33.854;18.542;2022-07-15T16:44:55;18.10;86.70
46043;DHT22;32533;-33.854;18.542;2022-07-15T16:47:21;18.10;87.10
46043;DHT22;32533;-33.854;18.542;2022-07-15T16:49:48;18.10;87.50
46043;DHT22;32533;-33.854;18.542;2022-07-15T16:52:15;18.10;87.90
46043;DHT22;32533;-33.854;18.542;2022-07-15T16:54:41;18.10;88.10
46043;DHT22;32533;-33.854;18.542;2022-07-15T16:57:08;18.10;88.30
46043;DHT22;32533;-33.854;18.542;2022-07-15T16:59:34;18.10;88.50